sensor_id;sensor_type;location;lat;lon;timestamp;P1;durP1;ratioP1;P2;durP2;ratioP2
17365;SDS011;8800;50.118;9.900;2024-03-08T00:00:38;38.40;;;17.15;;
17365;SDS011;8800;50.118;9.900;2024-03-08T00:03:05;35.35;;;16.58;;
17365;SDS011;8800;50.118;9.900;2024-03-08T00:05:34;32.45;;;16.48;;
17365;SDS011;8800;50.118;9.900;2024-03-08T00:08:03;35.47;;;16.75;;
17365;SDS011;8800;50.118;9.900;2024-03-08T00:10:34;34.60;;;16.98;;
17365;SDS011;8800;50.118;9.900;2024-03-08T00:13:01;35.42;;;16.80;;
17365;SDS011;8800;50.118;9.900;2024-03-08T00:15:31;36.15;;;16.55;;
17365;SDS011;8800;50.118;9.900;2024-03-08T00:18:01;37.15;;;17.08;;
17365;SDS011;8800;50.118;9.900;2024-03-08T00:20:29;34.95;;;16.48;;
17365;SDS011;8800;50.118;9.900;2024-03-08T00:23:03;34.58;;;16.58;;
17365;SDS011;8800;50.118;9.900;2024-03-08T00:25:32;35.42;;;17.02;;
17365;SDS011;8800;50.118;9.900;2024-03-08T00:30:31;37.40;;;18.13;;
17365;SDS011;8800;50.118;9.900;2024-03-08T00:32:57;37.05;;;17.23;;
17365;SDS011;8800;50.118;9.900;2024-03-08T00:35:24;36.30;;;17.10;;
17365;SDS011;8800;50.118;9.900;2024-03-08T00:37:51;34.90;;;16.48;;
17365;SDS011;8800;50.118;9.900;2024-03-08T00:40:19;38.05;;;17.73;;
17365;SDS011;8800;50.118;9.900;2024-03-08T00:42:45;38.03;;;17.20;;
17365;SDS011;8800;50.118;9.900;2024-03-08T00:45:12;36.72;;;17.20;;
17365;SDS011;8800;50.118;9.900;2024-03-08T00:47:39;38.10;;;17.40;;
17365;SDS011;8800;50.118;9.900;2024-03-08T00:50:07;34.83;;;16.58;;
17365;SDS011;8800;50.118;9.900;2024-03-08T00:52:34;36.72;;;16.85;;
17365;SDS011;8800;50.118;9.900;2024-03-08T00:55:01;36.33;;;16.92;;
17365;SDS011;8800;50.118;9.900;2024-03-08T00:57:28;36.75;;;17.42;;
17365;SDS011;8800;50.118;9.900;2024-03-08T00:59:55;37.55;;;17.88;;
17365;SDS011;8800;50.118;9.900;2024-03-08T01:02:22;37.65;;;17.55;;
17365;SDS011;8800;50.118;9.900;2024-03-08T01:04:48;39.17;;;17.45;;
17365;SDS011;8800;50.118;9.900;2024-03-08T01:07:15;36.13;;;17.30;;
17365;SDS011;8800;50.118;9.900;2024-03-08T01:09:42;40.47;;;18.20;;
17365;SDS011;8800;50.118;9.900;2024-03-08T01:12:09;36.30;;;17.05;;
17365;SDS011;8800;50.118;9.900;2024-03-08T01:14:37;33.92;;;17.10;;
17365;SDS011;8800;50.118;9.900;2024-03-08T01:17:02;41.13;;;18.63;;
17365;SDS011;8800;50.118;9.900;2024-03-08T01:19:29;38.25;;;16.65;;
17365;SDS011;8800;50.118;9.900;2024-03-08T01:21:57;34.58;;;16.75;;
17365;SDS011;8800;50.118;9.900;2024-03-08T01:24:24;41.38;;;18.30;;
17365;SDS011;8800;50.118;9.900;2024-03-08T01:26:51;39.47;;;18.30;;
17365;SDS011;8800;50.118;9.900;2024-03-08T01:29:18;39.95;;;17.65;;
17365;SDS011;8800;50.118;9.900;2024-03-08T01:31:46;39.58;;;17.20;;
17365;SDS011;8800;50.118;9.900;2024-03-08T01:34:12;39.95;;;17.55;;
17365;SDS011;8800;50.118;9.900;2024-03-08T01:36:39;42.28;;;18.15;;
17365;SDS011;8800;50.118;9.900;2024-03-08T01:39:06;40.90;;;17.60;;
17365;SDS011;8800;50.118;9.900;2024-03-08T01:41:33;40.13;;;17.38;;
17365;SDS011;8800;50.118;9.900;2024-03-08T01:44:00;35.92;;;17.35;;
17365;SDS011;8800;50.118;9.900;2024-03-08T01:46:30;39.70;;;18.05;;
17365;SDS011;8800;50.118;9.900;2024-03-08T01:48:59;36.55;;;16.98;;
17365;SDS011;8800;50.118;9.900;2024-03-08T01:51:29;37.17;;;18.15;;
17365;SDS011;8800;50.118;9.900;2024-03-08T01:53:56;36.20;;;17.17;;
17365;SDS011;8800;50.118;9.900;2024-03-08T01:56:24;41.17;;;19.13;;
17365;SDS011;8800;50.118;9.900;2024-03-08T01:58:51;38.05;;;17.73;;
17365;SDS011;8800;50.118;9.900;2024-03-08T02:01:20;41.38;;;18.15;;
17365;SDS011;8800;50.118;9.900;2024-03-08T02:03:50;40.42;;;17.50;;
17365;SDS011;8800;50.118;9.900;2024-03-08T02:06:29;36.13;;;17.10;;
17365;SDS011;8800;50.118;9.900;2024-03-08T02:09:00;38.67;;;17.73;;
17365;SDS011;8800;50.118;9.900;2024-03-08T02:11:32;36.67;;;17.42;;
17365;SDS011;8800;50.118;9.900;2024-03-08T02:13:59;43.65;;;18.85;;
17365;SDS011;8800;50.118;9.900;2024-03-08T02:16:34;38.38;;;17.63;;
17365;SDS011;8800;50.118;9.900;2024-03-08T02:19:01;39.08;;;17.73;;
17365;SDS011;8800;50.118;9.900;2024-03-08T02:21:36;41.05;;;18.02;;
17365;SDS011;8800;50.118;9.900;2024-03-08T02:24:05;36.95;;;17.27;;
17365;SDS011;8800;50.118;9.900;2024-03-08T02:26:35;45.97;;;18.58;;
17365;SDS011;8800;50.118;9.900;2024-03-08T02:29:03;40.17;;;17.77;;
17365;SDS011;8800;50.118;9.900;2024-03-08T02:31:30;38.45;;;18.20;;
17365;SDS011;8800;50.118;9.900;2024-03-08T02:33:56;43.05;;;18.65;;
17365;SDS011;8800;50.118;9.900;2024-03-08T02:36:24;39.63;;;17.15;;
17365;SDS011;8800;50.118;9.900;2024-03-08T02:38:52;41.92;;;18.38;;
17365;SDS011;8800;50.118;9.900;2024-03-08T02:41:20;36.38;;;16.98;;
17365;SDS011;8800;50.118;9.900;2024-03-08T02:43:48;38.25;;;17.67;;
17365;SDS011;8800;50.118;9.900;2024-03-08T02:46:15;38.45;;;17.55;;
17365;SDS011;8800;50.118;9.900;2024-03-08T02:48:42;39.15;;;17.73;;
17365;SDS011;8800;50.118;9.900;2024-03-08T02:51:08;37.70;;;18.33;;
17365;SDS011;8800;50.118;9.900;2024-03-08T02:53:36;37.83;;;17.75;;
17365;SDS011;8800;50.118;9.900;2024-03-08T02:56:04;39.40;;;18.25;;
17365;SDS011;8800;50.118;9.900;2024-03-08T02:58:34;40.13;;;17.80;;
17365;SDS011;8800;50.118;9.900;2024-03-08T03:01:00;40.03;;;17.48;;
17365;SDS011;8800;50.118;9.900;2024-03-08T03:03:27;40.55;;;18.10;;
17365;SDS011;8800;50.118;9.900;2024-03-08T03:05:53;40.35;;;18.35;;
17365;SDS011;8800;50.118;9.900;2024-03-08T03:08:21;40.25;;;18.25;;
17365;SDS011;8800;50.118;9.900;2024-03-08T03:10:48;39.28;;;17.20;;
17365;SDS011;8800;50.118;9.900;2024-03-08T03:13:23;38.90;;;17.20;;
17365;SDS011;8800;50.118;9.900;2024-03-08T03:15:50;44.13;;;18.85;;
17365;SDS011;8800;50.118;9.900;2024-03-08T03:18:16;40.90;;;17.83;;
17365;SDS011;8800;50.118;9.900;2024-03-08T03:20:46;40.67;;;17.75;;
17365;SDS011;8800;50.118;9.900;2024-03-08T03:23:13;41.33;;;18.42;;
17365;SDS011;8800;50.118;9.900;2024-03-08T03:25:45;43.17;;;18.35;;
17365;SDS011;8800;50.118;9.900;2024-03-08T03:28:12;41.03;;;17.30;;
17365;SDS011;8800;50.118;9.900;2024-03-08T03:30:41;40.05;;;18.58;;
17365;SDS011;8800;50.118;9.900;2024-03-08T03:33:07;45.00;;;17.60;;
17365;SDS011;8800;50.118;9.900;2024-03-08T03:35:35;41.47;;;18.48;;
17365;SDS011;8800;50.118;9.900;2024-03-08T03:38:02;44.50;;;19.15;;
17365;SDS011;8800;50.118;9.900;2024-03-08T03:40:32;42.20;;;18.17;;
17365;SDS011;8800;50.118;9.900;2024-03-08T03:42:58;38.47;;;17.73;;
17365;SDS011;8800;50.118;9.900;2024-03-08T03:45:25;42.05;;;18.33;;
17365;SDS011;8800;50.118;9.900;2024-03-08T03:47:54;40.50;;;17.52;;
17365;SDS011;8800;50.118;9.900;2024-03-08T03:50:21;41.53;;;18.23;;
17365;SDS011;8800;50.118;9.900;2024-03-08T03:52:48;39.72;;;18.00;;
17365;SDS011;8800;50.118;9.900;2024-03-08T03:55:15;40.00;;;18.50;;
17365;SDS011;8800;50.118;9.900;2024-03-08T03:57:43;42.00;;;17.60;;
17365;SDS011;8800;50.118;9.900;2024-03-08T04:00:11;39.80;;;17.33;;
17365;SDS011;8800;50.118;9.900;2024-03-08T04:02:38;42.13;;;18.52;;
17365;SDS011;8800;50.118;9.900;2024-03-08T04:05:07;41.60;;;17.88;;
17365;SDS011;8800;50.118;9.900;2024-03-08T04:07:34;42.42;;;18.77;;
17365;SDS011;8800;50.118;9.900;2024-03-08T04:10:00;40.33;;;18.10;;
17365;SDS011;8800;50.118;9.900;2024-03-08T04:12:27;37.47;;;17.65;;
17365;SDS011;8800;50.118;9.900;2024-03-08T04:14:55;41.17;;;17.95;;
17365;SDS011;8800;50.118;9.900;2024-03-08T04:17:21;46.13;;;18.60;;
17365;SDS011;8800;50.118;9.900;2024-03-08T04:19:49;42.55;;;18.02;;
17365;SDS011;8800;50.118;9.900;2024-03-08T04:22:16;41.05;;;18.10;;
17365;SDS011;8800;50.118;9.900;2024-03-08T04:24:43;44.78;;;18.73;;
17365;SDS011;8800;50.118;9.900;2024-03-08T04:27:10;43.00;;;19.08;;
17365;SDS011;8800;50.118;9.900;2024-03-08T04:29:37;42.13;;;18.92;;
17365;SDS011;8800;50.118;9.900;2024-03-08T04:32:03;44.28;;;19.50;;
17365;SDS011;8800;50.118;9.900;2024-03-08T04:34:31;43.60;;;18.70;;
17365;SDS011;8800;50.118;9.900;2024-03-08T04:36:58;42.83;;;19.25;;
17365;SDS011;8800;50.118;9.900;2024-03-08T04:39:26;41.95;;;18.75;;
17365;SDS011;8800;50.118;9.900;2024-03-08T04:41:54;42.78;;;18.45;;
17365;SDS011;8800;50.118;9.900;2024-03-08T04:44:21;44.55;;;19.38;;
17365;SDS011;8800;50.118;9.900;2024-03-08T04:46:48;45.70;;;18.77;;
17365;SDS011;8800;50.118;9.900;2024-03-08T04:49:14;43.72;;;18.98;;
17365;SDS011;8800;50.118;9.900;2024-03-08T04:51:41;46.15;;;19.00;;
17365;SDS011;8800;50.118;9.900;2024-03-08T04:54:08;42.22;;;18.27;;
17365;SDS011;8800;50.118;9.900;2024-03-08T04:56:36;43.90;;;19.02;;
17365;SDS011;8800;50.118;9.900;2024-03-08T04:59:02;54.00;;;20.00;;
17365;SDS011;8800;50.118;9.900;2024-03-08T05:01:33;47.95;;;19.80;;
17365;SDS011;8800;50.118;9.900;2024-03-08T05:04:01;47.35;;;19.50;;
17365;SDS011;8800;50.118;9.900;2024-03-08T05:06:28;47.38;;;19.90;;
17365;SDS011;8800;50.118;9.900;2024-03-08T05:08:55;43.42;;;19.27;;
17365;SDS011;8800;50.118;9.900;2024-03-08T05:11:22;49.42;;;23.15;;
17365;SDS011;8800;50.118;9.900;2024-03-08T05:13:50;48.10;;;20.50;;
17365;SDS011;8800;50.118;9.900;2024-03-08T05:16:16;44.25;;;19.50;;
17365;SDS011;8800;50.118;9.900;2024-03-08T05:18:43;45.75;;;19.40;;
17365;SDS011;8800;50.118;9.900;2024-03-08T05:21:12;49.05;;;19.33;;
17365;SDS011;8800;50.118;9.900;2024-03-08T05:23:38;47.28;;;20.15;;
17365;SDS011;8800;50.118;9.900;2024-03-08T05:26:05;49.53;;;19.95;;
17365;SDS011;8800;50.118;9.900;2024-03-08T05:28:31;45.60;;;20.00;;
17365;SDS011;8800;50.118;9.900;2024-03-08T05:31:00;50.90;;;20.27;;
17365;SDS011;8800;50.118;9.900;2024-03-08T05:33:27;46.38;;;20.13;;
17365;SDS011;8800;50.118;9.900;2024-03-08T05:35:53;44.90;;;19.75;;
17365;SDS011;8800;50.118;9.900;2024-03-08T05:38:21;47.38;;;19.40;;
17365;SDS011;8800;50.118;9.900;2024-03-08T05:40:47;45.17;;;19.58;;
17365;SDS011;8800;50.118;9.900;2024-03-08T05:43:14;47.75;;;19.67;;
17365;SDS011;8800;50.118;9.900;2024-03-08T05:45:42;50.33;;;19.95;;
17365;SDS011;8800;50.118;9.900;2024-03-08T05:48:10;44.90;;;20.27;;
17365;SDS011;8800;50.118;9.900;2024-03-08T05:50:37;46.22;;;19.60;;
17365;SDS011;8800;50.118;9.900;2024-03-08T05:53:04;47.05;;;20.65;;
17365;SDS011;8800;50.118;9.900;2024-03-08T05:55:31;46.35;;;19.30;;
17365;SDS011;8800;50.118;9.900;2024-03-08T05:58:00;46.70;;;20.23;;
17365;SDS011;8800;50.118;9.900;2024-03-08T06:00:26;47.95;;;20.48;;
17365;SDS011;8800;50.118;9.900;2024-03-08T06:02:53;42.13;;;19.40;;
17365;SDS011;8800;50.118;9.900;2024-03-08T06:05:22;45.33;;;20.08;;
17365;SDS011;8800;50.118;9.900;2024-03-08T06:07:50;45.42;;;18.05;;
17365;SDS011;8800;50.118;9.900;2024-03-08T06:10:18;50.70;;;19.50;;
17365;SDS011;8800;50.118;9.900;2024-03-08T06:12:45;45.10;;;20.27;;
17365;SDS011;8800;50.118;9.900;2024-03-08T06:15:12;46.30;;;20.02;;
17365;SDS011;8800;50.118;9.900;2024-03-08T06:17:41;49.95;;;19.20;;
17365;SDS011;8800;50.118;9.900;2024-03-08T06:20:08;46.53;;;19.52;;
17365;SDS011;8800;50.118;9.900;2024-03-08T06:22:39;46.10;;;19.52;;
17365;SDS011;8800;50.118;9.900;2024-03-08T06:25:07;52.25;;;20.10;;
17365;SDS011;8800;50.118;9.900;2024-03-08T06:27:35;48.35;;;20.17;;
17365;SDS011;8800;50.118;9.900;2024-03-08T06:30:02;43.42;;;19.48;;
17365;SDS011;8800;50.118;9.900;2024-03-08T06:32:29;50.67;;;20.05;;
17365;SDS011;8800;50.118;9.900;2024-03-08T06:34:57;42.58;;;19.38;;
17365;SDS011;8800;50.118;9.900;2024-03-08T06:37:23;47.38;;;20.17;;
17365;SDS011;8800;50.118;9.900;2024-03-08T06:39:52;50.83;;;20.85;;
17365;SDS011;8800;50.118;9.900;2024-03-08T06:42:20;55.25;;;22.05;;
17365;SDS011;8800;50.118;9.900;2024-03-08T06:44:47;48.67;;;20.48;;
17365;SDS011;8800;50.118;9.900;2024-03-08T06:47:15;51.13;;;21.58;;
17365;SDS011;8800;50.118;9.900;2024-03-08T06:49:42;51.13;;;21.60;;
17365;SDS011;8800;50.118;9.900;2024-03-08T06:52:10;47.97;;;20.50;;
17365;SDS011;8800;50.118;9.900;2024-03-08T06:54:36;56.30;;;21.92;;
17365;SDS011;8800;50.118;9.900;2024-03-08T06:57:05;52.55;;;21.65;;
17365;SDS011;8800;50.118;9.900;2024-03-08T06:59:31;49.20;;;21.60;;
17365;SDS011;8800;50.118;9.900;2024-03-08T07:02:00;50.53;;;21.38;;
17365;SDS011;8800;50.118;9.900;2024-03-08T07:04:27;49.85;;;19.88;;
17365;SDS011;8800;50.118;9.900;2024-03-08T07:06:54;46.88;;;20.27;;
17365;SDS011;8800;50.118;9.900;2024-03-08T07:09:22;47.75;;;20.25;;
17365;SDS011;8800;50.118;9.900;2024-03-08T07:11:49;42.60;;;19.65;;
17365;SDS011;8800;50.118;9.900;2024-03-08T07:14:21;45.65;;;21.23;;
17365;SDS011;8800;50.118;9.900;2024-03-08T07:16:48;46.03;;;20.83;;
17365;SDS011;8800;50.118;9.900;2024-03-08T07:19:14;47.33;;;20.23;;
17365;SDS011;8800;50.118;9.900;2024-03-08T07:21:42;45.33;;;19.80;;
17365;SDS011;8800;50.118;9.900;2024-03-08T07:24:09;50.08;;;21.35;;
17365;SDS011;8800;50.118;9.900;2024-03-08T07:26:58;46.42;;;19.65;;
17365;SDS011;8800;50.118;9.900;2024-03-08T07:29:26;45.10;;;19.17;;
17365;SDS011;8800;50.118;9.900;2024-03-08T07:31:53;48.75;;;20.63;;
17365;SDS011;8800;50.118;9.900;2024-03-08T07:34:32;45.25;;;19.63;;
17365;SDS011;8800;50.118;9.900;2024-03-08T07:36:59;45.65;;;19.98;;
17365;SDS011;8800;50.118;9.900;2024-03-08T07:39:25;49.22;;;20.83;;
17365;SDS011;8800;50.118;9.900;2024-03-08T07:41:52;46.72;;;20.17;;
17365;SDS011;8800;50.118;9.900;2024-03-08T07:44:20;46.35;;;20.73;;
17365;SDS011;8800;50.118;9.900;2024-03-08T07:46:48;45.47;;;20.05;;
17365;SDS011;8800;50.118;9.900;2024-03-08T07:49:14;43.63;;;19.25;;
17365;SDS011;8800;50.118;9.900;2024-03-08T07:51:41;42.03;;;18.67;;
17365;SDS011;8800;50.118;9.900;2024-03-08T07:54:08;43.33;;;18.45;;
17365;SDS011;8800;50.118;9.900;2024-03-08T07:56:35;39.72;;;18.00;;
17365;SDS011;8800;50.118;9.900;2024-03-08T07:59:03;43.40;;;18.38;;
17365;SDS011;8800;50.118;9.900;2024-03-08T08:01:30;40.70;;;18.13;;
17365;SDS011;8800;50.118;9.900;2024-03-08T08:03:59;41.50;;;18.70;;
17365;SDS011;8800;50.118;9.900;2024-03-08T08:06:27;39.58;;;17.38;;
17365;SDS011;8800;50.118;9.900;2024-03-08T08:08:57;39.47;;;18.17;;
17365;SDS011;8800;50.118;9.900;2024-03-08T08:11:25;38.97;;;18.00;;
17365;SDS011;8800;50.118;9.900;2024-03-08T08:13:53;36.85;;;16.95;;
17365;SDS011;8800;50.118;9.900;2024-03-08T08:16:19;42.35;;;17.42;;
17365;SDS011;8800;50.118;9.900;2024-03-08T08:18:46;38.08;;;17.42;;
17365;SDS011;8800;50.118;9.900;2024-03-08T08:21:15;37.33;;;17.40;;
17365;SDS011;8800;50.118;9.900;2024-03-08T08:23:43;36.80;;;16.75;;
17365;SDS011;8800;50.118;9.900;2024-03-08T08:26:10;37.75;;;17.77;;
17365;SDS011;8800;50.118;9.900;2024-03-08T08:28:37;36.83;;;17.20;;
17365;SDS011;8800;50.118;9.900;2024-03-08T08:31:03;37.70;;;17.30;;
17365;SDS011;8800;50.118;9.900;2024-03-08T08:33:30;34.30;;;17.05;;
17365;SDS011;8800;50.118;9.900;2024-03-08T08:35:56;42.25;;;19.08;;
17365;SDS011;8800;50.118;9.900;2024-03-08T08:38:25;35.15;;;16.08;;
17365;SDS011;8800;50.118;9.900;2024-03-08T08:40:51;39.78;;;17.02;;
17365;SDS011;8800;50.118;9.900;2024-03-08T08:43:18;38.17;;;16.58;;
17365;SDS011;8800;50.118;9.900;2024-03-08T08:45:46;36.72;;;16.45;;
17365;SDS011;8800;50.118;9.900;2024-03-08T08:48:15;36.55;;;17.00;;
17365;SDS011;8800;50.118;9.900;2024-03-08T08:50:42;35.20;;;15.85;;
17365;SDS011;8800;50.118;9.900;2024-03-08T08:53:09;36.33;;;16.83;;
17365;SDS011;8800;50.118;9.900;2024-03-08T08:55:38;32.88;;;15.50;;
17365;SDS011;8800;50.118;9.900;2024-03-08T08:58:06;30.85;;;15.50;;
17365;SDS011;8800;50.118;9.900;2024-03-08T09:00:33;36.22;;;15.90;;
17365;SDS011;8800;50.118;9.900;2024-03-08T09:02:59;33.28;;;15.98;;
17365;SDS011;8800;50.118;9.900;2024-03-08T09:05:27;32.08;;;15.02;;
17365;SDS011;8800;50.118;9.900;2024-03-08T09:07:54;32.70;;;14.70;;
17365;SDS011;8800;50.118;9.900;2024-03-08T09:10:20;34.17;;;14.88;;
17365;SDS011;8800;50.118;9.900;2024-03-08T09:12:49;30.42;;;15.00;;
17365;SDS011;8800;50.118;9.900;2024-03-08T09:15:15;32.35;;;14.75;;
17365;SDS011;8800;50.118;9.900;2024-03-08T09:17:45;33.22;;;15.25;;
17365;SDS011;8800;50.118;9.900;2024-03-08T09:20:13;30.05;;;14.50;;
17365;SDS011;8800;50.118;9.900;2024-03-08T09:22:40;29.15;;;13.93;;
17365;SDS011;8800;50.118;9.900;2024-03-08T09:25:07;33.03;;;13.93;;
17365;SDS011;8800;50.118;9.900;2024-03-08T09:27:34;30.80;;;14.02;;
17365;SDS011;8800;50.118;9.900;2024-03-08T09:30:03;32.53;;;14.82;;
17365;SDS011;8800;50.118;9.900;2024-03-08T09:32:32;32.58;;;14.93;;
17365;SDS011;8800;50.118;9.900;2024-03-08T09:34:59;32.47;;;14.85;;
17365;SDS011;8800;50.118;9.900;2024-03-08T09:37:26;30.73;;;14.73;;
17365;SDS011;8800;50.118;9.900;2024-03-08T09:39:53;32.03;;;14.52;;
17365;SDS011;8800;50.118;9.900;2024-03-08T09:42:23;30.33;;;14.77;;
17365;SDS011;8800;50.118;9.900;2024-03-08T09:44:51;29.05;;;14.40;;
17365;SDS011;8800;50.118;9.900;2024-03-08T09:47:19;28.08;;;14.05;;
17365;SDS011;8800;50.118;9.900;2024-03-08T09:49:49;27.23;;;13.48;;
17365;SDS011;8800;50.118;9.900;2024-03-08T09:52:15;29.98;;;14.90;;
17365;SDS011;8800;50.118;9.900;2024-03-08T09:54:43;29.08;;;14.15;;
17365;SDS011;8800;50.118;9.900;2024-03-08T09:57:10;33.67;;;15.52;;
17365;SDS011;8800;50.118;9.900;2024-03-08T09:59:36;30.83;;;13.93;;
17365;SDS011;8800;50.118;9.900;2024-03-08T10:02:14;27.38;;;13.63;;
17365;SDS011;8800;50.118;9.900;2024-03-08T10:04:43;27.50;;;13.52;;
17365;SDS011;8800;50.118;9.900;2024-03-08T10:07:11;24.02;;;12.70;;
17365;SDS011;8800;50.118;9.900;2024-03-08T10:09:38;28.30;;;13.43;;
17365;SDS011;8800;50.118;9.900;2024-03-08T10:12:07;27.70;;;14.00;;
17365;SDS011;8800;50.118;9.900;2024-03-08T10:14:35;29.58;;;13.02;;
17365;SDS011;8800;50.118;9.900;2024-03-08T10:17:05;26.63;;;13.27;;
17365;SDS011;8800;50.118;9.900;2024-03-08T10:19:32;28.48;;;13.35;;
17365;SDS011;8800;50.118;9.900;2024-03-08T10:22:01;25.98;;;12.98;;
17365;SDS011;8800;50.118;9.900;2024-03-08T10:24:31;26.83;;;11.93;;
17365;SDS011;8800;50.118;9.900;2024-03-08T10:26:59;25.58;;;12.52;;
17365;SDS011;8800;50.118;9.900;2024-03-08T10:29:26;26.98;;;12.73;;
17365;SDS011;8800;50.118;9.900;2024-03-08T10:31:54;25.77;;;12.25;;
17365;SDS011;8800;50.118;9.900;2024-03-08T10:34:21;27.58;;;12.27;;
17365;SDS011;8800;50.118;9.900;2024-03-08T10:36:49;25.88;;;12.98;;
17365;SDS011;8800;50.118;9.900;2024-03-08T10:39:20;27.10;;;13.25;;
17365;SDS011;8800;50.118;9.900;2024-03-08T10:41:49;28.65;;;12.00;;
17365;SDS011;8800;50.118;9.900;2024-03-08T10:44:20;25.38;;;13.18;;
17365;SDS011;8800;50.118;9.900;2024-03-08T10:46:56;29.63;;;13.50;;
17365;SDS011;8800;50.118;9.900;2024-03-08T10:49:30;26.23;;;13.25;;
17365;SDS011;8800;50.118;9.900;2024-03-08T10:51:59;26.73;;;12.80;;
17365;SDS011;8800;50.118;9.900;2024-03-08T10:54:29;27.05;;;13.55;;
17365;SDS011;8800;50.118;9.900;2024-03-08T10:56:57;25.40;;;13.43;;
17365;SDS011;8800;50.118;9.900;2024-03-08T10:59:24;28.20;;;14.07;;
17365;SDS011;8800;50.118;9.900;2024-03-08T11:01:52;23.65;;;12.77;;
17365;SDS011;8800;50.118;9.900;2024-03-08T11:04:19;26.08;;;12.73;;
17365;SDS011;8800;50.118;9.900;2024-03-08T11:06:48;28.67;;;13.88;;
17365;SDS011;8800;50.118;9.900;2024-03-08T11:09:28;32.33;;;14.25;;
17365;SDS011;8800;50.118;9.900;2024-03-08T11:14:46;28.33;;;14.32;;
17365;SDS011;8800;50.118;9.900;2024-03-08T11:17:14;31.73;;;14.35;;
17365;SDS011;8800;50.118;9.900;2024-03-08T11:19:45;29.23;;;13.98;;
17365;SDS011;8800;50.118;9.900;2024-03-08T11:22:20;27.33;;;13.60;;
17365;SDS011;8800;50.118;9.900;2024-03-08T11:24:50;27.50;;;13.90;;
17365;SDS011;8800;50.118;9.900;2024-03-08T11:27:17;27.67;;;13.68;;
17365;SDS011;8800;50.118;9.900;2024-03-08T11:29:45;26.27;;;13.88;;
17365;SDS011;8800;50.118;9.900;2024-03-08T11:32:27;26.73;;;14.05;;
17365;SDS011;8800;50.118;9.900;2024-03-08T11:34:54;29.25;;;13.65;;
17365;SDS011;8800;50.118;9.900;2024-03-08T11:37:20;25.63;;;14.18;;
17365;SDS011;8800;50.118;9.900;2024-03-08T11:39:47;28.23;;;13.52;;
17365;SDS011;8800;50.118;9.900;2024-03-08T11:42:16;27.38;;;13.50;;
17365;SDS011;8800;50.118;9.900;2024-03-08T11:44:43;23.65;;;12.80;;
17365;SDS011;8800;50.118;9.900;2024-03-08T11:47:10;23.40;;;12.13;;
17365;SDS011;8800;50.118;9.900;2024-03-08T11:49:37;26.63;;;12.95;;
17365;SDS011;8800;50.118;9.900;2024-03-08T11:52:04;24.60;;;12.65;;
17365;SDS011;8800;50.118;9.900;2024-03-08T11:54:32;28.80;;;13.48;;
17365;SDS011;8800;50.118;9.900;2024-03-08T11:57:00;23.73;;;12.73;;
17365;SDS011;8800;50.118;9.900;2024-03-08T11:59:29;26.17;;;12.63;;
17365;SDS011;8800;50.118;9.900;2024-03-08T12:01:59;23.50;;;12.35;;
17365;SDS011;8800;50.118;9.900;2024-03-08T12:04:27;26.90;;;13.10;;
17365;SDS011;8800;50.118;9.900;2024-03-08T12:06:55;23.05;;;12.98;;
17365;SDS011;8800;50.118;9.900;2024-03-08T12:09:21;23.17;;;12.77;;
17365;SDS011;8800;50.118;9.900;2024-03-08T12:11:49;22.23;;;12.73;;
17365;SDS011;8800;50.118;9.900;2024-03-08T12:14:16;24.58;;;12.75;;
17365;SDS011;8800;50.118;9.900;2024-03-08T12:16:44;22.48;;;12.55;;
17365;SDS011;8800;50.118;9.900;2024-03-08T12:19:10;24.88;;;12.65;;
17365;SDS011;8800;50.118;9.900;2024-03-08T12:21:38;24.27;;;12.65;;
17365;SDS011;8800;50.118;9.900;2024-03-08T12:24:12;23.27;;;12.88;;
17365;SDS011;8800;50.118;9.900;2024-03-08T12:26:41;22.27;;;12.43;;
17365;SDS011;8800;50.118;9.900;2024-03-08T12:29:15;22.05;;;11.90;;
17365;SDS011;8800;50.118;9.900;2024-03-08T12:31:44;21.00;;;12.02;;
17365;SDS011;8800;50.118;9.900;2024-03-08T12:34:11;20.10;;;11.90;;
17365;SDS011;8800;50.118;9.900;2024-03-08T12:36:44;22.48;;;12.25;;
17365;SDS011;8800;50.118;9.900;2024-03-08T12:39:12;26.92;;;12.48;;
17365;SDS011;8800;50.118;9.900;2024-03-08T12:41:41;22.20;;;12.02;;
17365;SDS011;8800;50.118;9.900;2024-03-08T12:44:08;21.48;;;12.02;;
17365;SDS011;8800;50.118;9.900;2024-03-08T12:46:36;21.92;;;12.38;;
17365;SDS011;8800;50.118;9.900;2024-03-08T12:49:07;22.25;;;12.30;;
17365;SDS011;8800;50.118;9.900;2024-03-08T12:51:34;23.85;;;12.32;;
17365;SDS011;8800;50.118;9.900;2024-03-08T12:54:01;22.90;;;12.02;;
17365;SDS011;8800;50.118;9.900;2024-03-08T12:56:28;24.17;;;12.68;;
17365;SDS011;8800;50.118;9.900;2024-03-08T12:58:55;21.00;;;11.60;;
17365;SDS011;8800;50.118;9.900;2024-03-08T13:01:22;21.35;;;11.60;;
17365;SDS011;8800;50.118;9.900;2024-03-08T13:03:49;20.25;;;11.35;;
17365;SDS011;8800;50.118;9.900;2024-03-08T13:06:17;22.73;;;11.60;;
17365;SDS011;8800;50.118;9.900;2024-03-08T13:08:47;20.20;;;11.65;;
17365;SDS011;8800;50.118;9.900;2024-03-08T13:11:14;18.63;;;11.35;;
17365;SDS011;8800;50.118;9.900;2024-03-08T13:13:42;20.20;;;11.77;;
17365;SDS011;8800;50.118;9.900;2024-03-08T13:16:09;17.35;;;11.40;;
17365;SDS011;8800;50.118;9.900;2024-03-08T13:18:40;20.92;;;12.10;;
17365;SDS011;8800;50.118;9.900;2024-03-08T13:21:07;18.52;;;11.50;;
17365;SDS011;8800;50.118;9.900;2024-03-08T13:23:36;18.88;;;12.38;;
17365;SDS011;8800;50.118;9.900;2024-03-08T13:26:05;18.88;;;12.27;;
17365;SDS011;8800;50.118;9.900;2024-03-08T13:28:32;18.92;;;12.52;;
17365;SDS011;8800;50.118;9.900;2024-03-08T13:31:02;19.00;;;12.00;;
17365;SDS011;8800;50.118;9.900;2024-03-08T13:33:31;18.02;;;11.90;;
17365;SDS011;8800;50.118;9.900;2024-03-08T13:36:00;15.77;;;11.20;;
17365;SDS011;8800;50.118;9.900;2024-03-08T13:38:28;16.13;;;11.52;;
17365;SDS011;8800;50.118;9.900;2024-03-08T13:40:58;17.25;;;11.52;;
17365;SDS011;8800;50.118;9.900;2024-03-08T13:43:25;19.27;;;12.50;;
17365;SDS011;8800;50.118;9.900;2024-03-08T13:45:54;17.30;;;12.02;;
17365;SDS011;8800;50.118;9.900;2024-03-08T13:48:21;18.33;;;12.27;;
17365;SDS011;8800;50.118;9.900;2024-03-08T13:50:48;16.75;;;11.70;;
17365;SDS011;8800;50.118;9.900;2024-03-08T13:53:15;15.45;;;11.68;;
17365;SDS011;8800;50.118;9.900;2024-03-08T13:55:42;17.05;;;11.88;;
17365;SDS011;8800;50.118;9.900;2024-03-08T13:58:09;17.77;;;12.57;;
17365;SDS011;8800;50.118;9.900;2024-03-08T14:00:39;17.95;;;11.95;;
17365;SDS011;8800;50.118;9.900;2024-03-08T14:03:08;15.45;;;11.50;;
17365;SDS011;8800;50.118;9.900;2024-03-08T14:05:35;17.50;;;11.93;;
17365;SDS011;8800;50.118;9.900;2024-03-08T14:08:04;15.38;;;10.68;;
17365;SDS011;8800;50.118;9.900;2024-03-08T14:10:32;17.48;;;11.18;;
17365;SDS011;8800;50.118;9.900;2024-03-08T14:12:59;15.57;;;11.00;;
17365;SDS011;8800;50.118;9.900;2024-03-08T14:15:29;17.35;;;11.50;;
17365;SDS011;8800;50.118;9.900;2024-03-08T14:17:56;14.88;;;11.05;;
17365;SDS011;8800;50.118;9.900;2024-03-08T14:20:23;14.82;;;10.65;;
17365;SDS011;8800;50.118;9.900;2024-03-08T14:22:53;15.75;;;11.13;;
17365;SDS011;8800;50.118;9.900;2024-03-08T14:25:21;15.45;;;10.38;;
17365;SDS011;8800;50.118;9.900;2024-03-08T14:27:49;13.65;;;10.30;;
17365;SDS011;8800;50.118;9.900;2024-03-08T14:30:18;16.38;;;11.23;;
17365;SDS011;8800;50.118;9.900;2024-03-08T14:32:58;15.90;;;10.65;;
17365;SDS011;8800;50.118;9.900;2024-03-08T14:35:25;13.68;;;9.82;;
17365;SDS011;8800;50.118;9.900;2024-03-08T14:37:52;16.15;;;10.48;;
17365;SDS011;8800;50.118;9.900;2024-03-08T14:40:19;15.70;;;10.32;;
17365;SDS011;8800;50.118;9.900;2024-03-08T14:42:47;15.98;;;11.38;;